Time;durP1;ratioP1;P1;durP2;ratioP2;P2;SDS_P1;SDS_P2;PMS_P1;PMS_P2;Temp;Humidity;BMP_temperature;BMP_pressure;BME280_temperature;BME280_humidity;BME280_pressure;Samples;Min_cycle;Max_cycle;Signal;HPM_P1;HPM_P2
2021/01/17 00:00:40;;;;;;;1.58;1.55;;;14.90;61.70;;;;;;4197575;28;20057;-41
2021/01/17 00:03:01;;;;;;;0.00;0.00;;;14.90;61.40;;;;;;4197858;28;20084;-42
2021/01/17 00:05:24;;;;;;;0.98;0.63;;;15.00;61.20;;;;;;4197848;28;20078;-41
2021/01/17 00:07:46;;;;;;;0.00;0.00;;;15.00;61.10;;;;;;4197794;28;20065;-41
2021/01/17 00:10:10;;;;;;;1.02;1.02;;;15.10;61.00;;;;;;4197231;28;20491;-41
2021/01/17 00:12:31;;;;;;;0.43;0.43;;;15.10;60.70;;;;;;4197476;28;20063;-41
2021/01/17 00:14:52;;;;;;;0.10;0.10;;;15.20;60.30;;;;;;4197387;28;20482;-40
2021/01/17 00:17:13;;;;;;;0.17;0.17;;;15.30;59.90;;;;;;4197682;28;20102;-41
2021/01/17 00:19:34;;;;;;;7.03;1.27;;;15.40;59.80;;;;;;4197808;28;20053;-41
2021/01/17 00:21:55;;;;;;;0.30;0.30;;;15.40;59.50;;;;;;4197772;28;20132;-41
2021/01/17 00:24:16;;;;;;;4.15;1.85;;;15.40;59.50;;;;;;4197503;28;20076;-41
2021/01/17 00:26:38;;;;;;;1.38;0.88;;;15.40;59.40;;;;;;4197558;28;20049;-41
2021/01/17 00:28:59;;;;;;;0.52;0.52;;;15.40;59.50;;;;;;4197389;28;20057;-41
2021/01/17 00:31:20;;;;;;;0.03;0.03;;;15.40;59.40;;;;;;4197323;28;20403;-40
2021/01/17 00:33:41;;;;;;;2.30;2.13;;;15.40;59.40;;;;;;4197559;28;20102;-41
2021/01/17 00:36:02;;;;;;;0.05;0.05;;;15.40;59.50;;;;;;4197223;28;20052;-42
2021/01/17 00:38:23;;;;;;;0.85;0.85;;;15.40;59.70;;;;;;4197180;28;20842;-41
2021/01/17 00:40:44;;;;;;;1.13;1.13;;;15.30;59.60;;;;;;4180570;28;20102;-41
2021/01/17 00:43:06;;;;;;;2.80;1.27;;;15.30;59.60;;;;;;4180954;28;20049;-41
2021/01/17 00:45:27;;;;;;;;;;;15.30;59.60;;;;;;4189885;28;20123;-41
2021/01/17 00:47:49;;;;;;;;;;;15.30;59.70;;;;;;4197468;28;19924;-41
2021/01/17 00:50:12;;;;;;;1.20;1.08;;;15.20;59.80;;;;;;4195970;28;20007;-41
2021/01/17 00:52:33;;;;;;;0.70;0.70;;;15.20;60.00;;;;;;4196053;28;20102;-41
2021/01/17 00:54:55;;;;;;;1.20;0.50;;;15.30;59.80;;;;;;4195646;28;20049;-41
2021/01/17 00:57:18;;;;;;;0.50;0.50;;;15.40;59.50;;;;;;4195871;28;20556;-41
2021/01/17 00:59:40;;;;;;;;;;;15.50;59.10;;;;;;4196114;28;21029;-41
2021/01/17 01:02:03;;;;;;;0.00;0.00;;;15.50;59.00;;;;;;4195962;28;19931;-41
2021/01/17 01:04:24;;;;;;;0.10;0.10;;;15.60;58.90;;;;;;4196675;28;20506;-42
2021/01/17 01:06:45;;;;;;;0.20;0.20;;;15.60;58.70;;;;;;4196893;28;20059;-44
2021/01/17 01:09:07;;;;;;;0.00;0.00;;;15.60;58.70;;;;;;4196226;28;20063;-42
2021/01/17 01:11:28;;;;;;;0.17;0.17;;;15.60;58.60;;;;;;4196623;28;20053;-42
2021/01/17 01:13:49;;;;;;;0.20;0.20;;;15.80;58.40;;;;;;4196561;28;20080;-41
2021/01/17 01:16:13;;;;;;;2.53;2.42;;;15.90;58.00;;;;;;4180241;28;20057;-41
2021/01/17 01:18:35;;;;;;;1.42;1.38;;;15.90;57.80;;;;;;4179981;28;20052;-41
2021/01/17 01:20:56;;;;;;;1.13;1.05;;;15.90;57.80;;;;;;4180064;28;20454;-41
2021/01/17 01:23:17;;;;;;;0.55;0.55;;;15.90;57.80;;;;;;4180267;28;20049;-42
2021/01/17 01:25:37;;;;;;;0.32;0.32;;;15.90;57.80;;;;;;4194367;28;20135;-44
2021/01/17 01:27:58;;;;;;;0.20;0.20;;;15.80;57.90;;;;;;4195425;28;20564;-42
2021/01/17 01:30:20;;;;;;;0.20;0.20;;;15.80;58.10;;;;;;4196272;28;20426;-41
2021/01/17 01:32:42;;;;;;;1.48;1.38;;;15.70;58.90;;;;;;4196511;28;20049;-41
2021/01/17 01:35:04;;;;;;;0.45;0.45;;;15.60;58.40;;;;;;4196246;28;20526;-43
2021/01/17 01:37:25;;;;;;;1.15;1.08;;;15.50;58.50;;;;;;4196374;28;20114;-41
2021/01/17 01:39:46;;;;;;;0.88;0.88;;;15.50;58.60;;;;;;4195362;28;20125;-41
2021/01/17 01:42:08;;;;;;;0.45;0.45;;;15.60;58.60;;;;;;4196332;28;20056;-41
2021/01/17 01:44:29;;;;;;;0.20;0.20;;;15.80;58.20;;;;;;4196332;28;20072;-41
2021/01/17 01:46:55;;;;;;;0.38;0.38;;;15.90;57.60;;;;;;4196226;28;20061;-41
2021/01/17 01:49:17;;;;;;;0.52;0.52;;;16.10;57.30;;;;;;4179651;28;20102;-42
2021/01/17 01:51:38;;;;;;;4.90;1.08;;;16.20;57.00;;;;;;4179416;28;20442;-42
2021/01/17 01:54:00;;;;;;;0.47;0.47;;;16.20;56.80;;;;;;4188875;28;20652;-41
2021/01/17 01:56:22;;;;;;;4.05;2.28;;;16.30;57.30;;;;;;4196095;28;20127;-42
2021/01/17 01:58:43;;;;;;;0.45;0.45;;;16.40;56.50;;;;;;4196219;28;20057;-43
2021/01/17 02:01:05;;;;;;;0.00;0.00;;;16.40;56.30;;;;;;4196145;28;20056;-42
2021/01/17 02:03:26;;;;;;;0.30;0.30;;;16.40;56.30;;;;;;4195986;28;20053;-42
2021/01/17 02:05:48;;;;;;;0.43;0.43;;;16.40;56.20;;;;;;4195001;28;20052;-42
2021/01/17 02:08:37;;;;;;;0.20;0.20;;;16.40;56.20;;;;;;4195659;28;20421;-41
2021/01/17 02:11:05;;;;;;;0.45;0.45;;;16.30;56.50;;;;;;4195908;28;20131;-41
2021/01/17 02:13:34;;;;;;;7.85;2.72;;;16.20;56.60;;;;;;4194634;28;20552;-42
2021/01/17 02:15:55;;;;;;;0.30;0.30;;;16.20;56.80;;;;;;4195906;28;20068;-41
2021/01/17 02:18:16;;;;;;;;;;;16.10;56.90;;;;;;4196103;28;20426;-43
2021/01/17 02:20:39;;;;;;;0.00;0.00;;;16.00;57.20;;;;;;4195576;28;19932;-41
2021/01/17 02:23:12;;;;;;;0.45;0.45;;;16.10;57.20;;;;;;4195634;28;20052;-41
2021/01/17 02:25:35;;;;;;;0.93;0.93;;;16.20;56.90;;;;;;4195598;28;20056;-41
2021/01/17 02:27:57;;;;;;;0.52;0.52;;;16.30;56.50;;;;;;4195913;28;20499;-41
2021/01/17 02:30:21;;;;;;;9.88;1.33;;;16.40;56.20;;;;;;4195819;28;20109;-42
2021/01/17 02:32:49;;;;;;;0.20;0.20;;;16.40;56.30;;;;;;4195418;28;20058;-41
2021/01/17 02:35:11;;;;;;;2.28;0.95;;;16.30;56.30;;;;;;4195519;28;20085;-42
2021/01/17 02:37:40;;;;;;;1.08;1.08;;;16.30;56.30;;;;;;4195374;28;20513;-41
2021/01/17 02:40:06;;;;;;;0.55;0.55;;;16.50;56.10;;;;;;4195390;28;20093;-41
2021/01/17 02:42:29;;;;;;;0.10;0.10;;;16.50;56.20;;;;;;4195524;28;20067;-41
2021/01/17 02:44:51;;;;;;;0.10;0.10;;;16.50;55.80;;;;;;4195685;28;20518;-41
2021/01/17 02:47:12;;;;;;;1.05;0.47;;;16.40;55.90;;;;;;4195322;28;20694;-42
2021/01/17 02:49:33;;;;;;;0.75;0.75;;;16.40;56.20;;;;;;4195512;28;20052;-41
2021/01/17 02:51:54;;;;;;;0.40;0.40;;;16.40;56.20;;;;;;4195123;28;20548;-43
2021/01/17 02:54:20;;;;;;;2.90;0.88;;;16.50;56.00;;;;;;4195377;28;20052;-42
2021/01/17 02:56:47;;;;;;;2.35;1.30;;;16.60;55.80;;;;;;4195184;28;20079;-41
2021/01/17 02:59:13;;;;;;;0.70;0.70;;;16.50;55.70;;;;;;4195046;28;20048;-41
2021/01/17 03:01:37;;;;;;;0.15;0.15;;;16.50;56.50;;;;;;4195506;28;20502;-41
2021/01/17 03:04:05;;;;;;;1.48;1.33;;;16.40;56.00;;;;;;4195510;28;20049;-42
2021/01/17 03:06:26;;;;;;;2.28;1.02;;;16.30;56.00;;;;;;4195358;28;20067;-43
2021/01/17 03:08:47;;;;;;;0.08;0.08;;;16.30;56.20;;;;;;4194554;28;20388;-41
2021/01/17 03:11:09;;;;;;;0.35;0.35;;;16.20;56.40;;;;;;4195352;28;20053;-43
2021/01/17 03:13:31;;;;;;;0.20;0.20;;;16.10;56.60;;;;;;4195304;28;20480;-42
2021/01/17 03:15:53;;;;;;;0.10;0.10;;;16.10;56.70;;;;;;4195420;28;20059;-42
2021/01/17 03:18:14;;;;;;;1.02;1.02;;;16.20;56.50;;;;;;4195143;28;20053;-45
2021/01/17 03:20:35;;;;;;;0.63;0.63;;;16.30;56.20;;;;;;4195341;28;20052;-41
2021/01/17 03:22:56;;;;;;;0.45;0.45;;;16.30;56.00;;;;;;4178912;28;20061;-40
2021/01/17 03:25:17;;;;;;;0.30;0.30;;;16.30;56.10;;;;;;4192193;28;20052;-42
2021/01/17 03:27:38;;;;;;;0.40;0.40;;;16.20;56.20;;;;;;4194969;28;20052;-41
2021/01/17 03:29:59;;;;;;;5.78;0.73;;;16.30;56.30;;;;;;4197961;28;20460;-41
2021/01/17 03:32:21;;;;;;;0.47;0.47;;;16.30;56.20;;;;;;4198393;28;20060;-45
2021/01/17 03:34:48;;;;;;;0.60;0.60;;;16.40;56.00;;;;;;4198525;28;20493;-41
2021/01/17 03:37:09;;;;;;;0.20;0.20;;;16.40;55.90;;;;;;4198001;28;20071;-41
2021/01/17 03:39:30;;;;;;;0.00;0.00;;;16.30;56.00;;;;;;4197973;28;20221;-41
2021/01/17 03:41:51;;;;;;;0.00;0.00;;;16.40;55.90;;;;;;4198449;28;20524;-41
2021/01/17 03:44:12;;;;;;;0.38;0.38;;;16.60;55.60;;;;;;4197205;28;20071;-41
2021/01/17 03:46:33;;;;;;;0.80;0.80;;;16.70;55.30;;;;;;4197088;28;20056;-41
2021/01/17 03:48:55;;;;;;;1.20;1.10;;;16.70;55.10;;;;;;4198059;28;20068;-47
2021/01/17 03:51:17;;;;;;;0.40;0.40;;;16.70;55.10;;;;;;4197577;28;20148;-44
2021/01/17 03:53:38;;;;;;;0.52;0.52;;;16.60;55.30;;;;;;4197755;28;20052;-41
2021/01/17 03:55:59;;;;;;;1.45;1.20;;;16.50;55.50;;;;;;4198033;28;20067;-41
2021/01/17 03:58:19;;;;;;;0.45;0.45;;;16.40;55.80;;;;;;4185218;28;20490;-42
2021/01/17 04:00:40;;;;;;;1.48;1.48;;;16.40;55.90;;;;;;4197727;28;20053;-41
2021/01/17 04:03:01;;;;;;;;;;;16.30;56.00;;;;;;4198413;28;20490;-41
2021/01/17 04:05:23;;;;;;;2.57;2.17;;;16.20;56.30;;;;;;4197808;28;19931;-41
2021/01/17 04:07:44;;;;;;;0.22;0.22;;;16.20;56.40;;;;;;4197040;28;20048;-41
2021/01/17 04:10:06;;;;;;;0.85;0.85;;;16.10;56.50;;;;;;4197397;28;20052;-41
2021/01/17 04:12:27;;;;;;;0.20;0.20;;;16.00;56.60;;;;;;4197895;28;20048;-43
2021/01/17 04:14:48;;;;;;;0.90;0.90;;;15.90;56.80;;;;;;4197799;28;20056;-41
2021/01/17 04:17:09;;;;;;;0.55;0.55;;;15.90;57.10;;;;;;4197686;28;20055;-41
2021/01/17 04:19:30;;;;;;;0.20;0.20;;;15.90;57.00;;;;;;4197657;28;20593;-42
2021/01/17 04:21:52;;;;;;;2.40;1.92;;;16.10;56.70;;;;;;4197354;28;20144;-41
2021/01/17 04:24:13;;;;;;;0.22;0.22;;;16.20;56.40;;;;;;4197348;28;20048;-41
2021/01/17 04:26:34;;;;;;;0.00;0.00;;;16.30;56.70;;;;;;4197450;28;20049;-41
2021/01/17 04:28:55;;;;;;;0.25;0.25;;;16.40;55.80;;;;;;4197320;28;20056;-41
2021/01/17 04:31:16;;;;;;;1.02;1.02;;;16.60;55.40;;;;;;4197518;28;20048;-41
2021/01/17 04:33:37;;;;;;;0.15;0.15;;;16.80;54.90;;;;;;4197529;28;20054;-42
2021/01/17 04:35:58;;;;;;;1.23;0.98;;;16.80;54.70;;;;;;4197125;28;20102;-42
2021/01/17 04:38:20;;;;;;;2.28;2.17;;;16.80;55.50;;;;;;4197195;28;20623;-42
2021/01/17 04:40:41;;;;;;;0.95;0.95;;;16.70;54.80;;;;;;4196019;28;20079;-41
2021/01/17 04:43:07;;;;;;;0.82;0.82;;;16.70;55.00;;;;;;4197154;28;20063;-42
2021/01/17 04:45:28;;;;;;;4.38;2.78;;;16.60;55.00;;;;;;4197177;28;20052;-41
2021/01/17 04:47:50;;;;;;;0.03;0.03;;;16.60;55.20;;;;;;4197083;28;20052;-41
2021/01/17 04:50:12;;;;;;;1.45;1.33;;;16.50;55.40;;;;;;4197056;28;20079;-43
2021/01/17 04:52:41;;;;;;;3.60;2.55;;;16.40;55.60;;;;;;4180383;28;20423;-41
2021/01/17 04:55:04;;;;;;;0.52;0.52;;;16.40;55.60;;;;;;4180533;28;20045;-41
2021/01/17 04:57:34;;;;;;;0.82;0.82;;;16.50;55.50;;;;;;4193018;28;20106;-41
2021/01/17 05:00:05;;;;;;;0.15;0.15;;;16.40;55.60;;;;;;4196910;28;20418;-41
2021/01/17 05:02:33;;;;;;;0.43;0.43;;;16.30;55.70;;;;;;4196975;28;20417;-41
2021/01/17 05:05:20;;;;;;;0.10;0.10;;;16.30;56.00;;;;;;4196900;28;20057;-41
2021/01/17 05:07:49;;;;;;;0.20;0.20;;;16.40;55.90;;;;;;4180182;28;20171;-40
2021/01/17 05:10:12;;;;;;;0.20;0.20;;;16.50;55.50;;;;;;4180190;28;20060;-41
2021/01/17 05:12:39;;;;;;;0.35;0.35;;;16.60;55.20;;;;;;4180197;28;20426;-42
2021/01/17 05:15:01;;;;;;;5.97;1.70;;;16.70;55.00;;;;;;4180136;28;20057;-42
2021/01/17 05:17:23;;;;;;;0.50;0.50;;;16.70;54.90;;;;;;4180024;28;20053;-41
2021/01/17 05:19:45;;;;;;;0.98;0.98;;;16.70;54.90;;;;;;4186817;28;20437;-42
2021/01/17 05:22:06;;;;;;;0.13;0.13;;;16.60;55.00;;;;;;4196595;28;20102;-41
2021/01/17 05:24:30;;;;;;;0.17;0.17;;;16.70;55.00;;;;;;4196463;28;20809;-41
2021/01/17 05:26:54;;;;;;;4.38;1.17;;;16.80;54.60;;;;;;4196173;28;20132;-41
2021/01/17 05:29:18;;;;;;;1.30;1.20;;;16.90;54.30;;;;;;4196294;28;20060;-41
2021/01/17 05:31:41;;;;;;;0.55;0.55;;;16.90;54.20;;;;;;4195225;28;20119;-41
2021/01/17 05:34:02;;;;;;;0.20;0.20;;;16.90;54.40;;;;;;4196375;28;20052;-42
2021/01/17 05:36:23;;;;;;;0.30;0.30;;;16.80;54.60;;;;;;4196035;28;20055;-41
2021/01/17 05:38:44;;;;;;;0.32;0.32;;;16.70;54.70;;;;;;4196083;28;20094;-41
2021/01/17 05:41:06;;;;;;;1.35;1.25;;;16.60;54.90;;;;;;4196305;28;20052;-44
2021/01/17 05:43:28;;;;;;;0.75;0.75;;;16.50;55.20;;;;;;4196390;28;20052;-41
2021/01/17 05:45:48;;;;;;;0.60;0.60;;;16.40;55.60;;;;;;4196320;28;20057;-41
2021/01/17 05:48:10;;;;;;;0.77;0.77;;;16.40;55.70;;;;;;4196216;28;20074;-42
2021/01/17 05:50:33;;;;;;;0.13;0.13;;;16.30;55.80;;;;;;4196035;28;20055;-41
2021/01/17 05:52:55;;;;;;;0.10;0.10;;;16.20;56.00;;;;;;4195664;28;20071;-41
2021/01/17 05:55:16;;;;;;;0.25;0.25;;;16.20;56.20;;;;;;4196247;28;20055;-41
2021/01/17 05:57:38;;;;;;;0.50;0.50;;;16.20;56.30;;;;;;4195838;28;20098;-41
2021/01/17 06:00:00;;;;;;;0.20;0.20;;;16.20;56.30;;;;;;4195056;28;20087;-40
2021/01/17 06:02:23;;;;;;;1.42;1.33;;;16.10;56.30;;;;;;4196029;28;20095;-42
2021/01/17 06:04:56;;;;;;;2.25;2.08;;;16.10;56.40;;;;;;4195985;28;20076;-42
2021/01/17 06:07:21;;;;;;;2.08;1.98;;;16.10;56.40;;;;;;4195595;28;20129;-43
2021/01/17 06:09:44;;;;;;;1.30;1.30;;;16.20;56.30;;;;;;4195587;28;20459;-41
2021/01/17 06:12:06;;;;;;;2.65;0.40;;;16.30;56.00;;;;;;4196073;28;20489;-41
2021/01/17 06:14:27;;;;;;;1.23;1.13;;;16.50;55.60;;;;;;4195884;28;20056;-41
2021/01/17 06:16:50;;;;;;;0.10;0.10;;;16.60;55.20;;;;;;4196021;28;20098;-41
2021/01/17 06:19:12;;;;;;;0.55;0.55;;;16.70;54.90;;;;;;4195855;28;20063;-41
2021/01/17 06:21:34;;;;;;;2.10;0.75;;;16.70;54.60;;;;;;4195589;28;20055;-41
2021/01/17 06:24:00;;;;;;;0.30;0.30;;;16.80;54.50;;;;;;4195629;28;20900;-42
2021/01/17 06:26:26;;;;;;;1.05;1.05;;;16.80;54.50;;;;;;4195621;28;20060;-41
2021/01/17 06:28:47;;;;;;;6.03;0.75;;;16.80;54.60;;;;;;4195285;28;20090;-42
2021/01/17 06:31:09;;;;;;;0.10;0.10;;;16.80;54.70;;;;;;4194583;28;20063;-41
2021/01/17 06:33:31;;;;;;;0.55;0.55;;;16.80;54.40;;;;;;4195671;28;20058;-41
2021/01/17 06:36:10;;;;;;;1.27;0.75;;;17.00;54.10;;;;;;4195408;28;20059;-41
2021/01/17 06:38:32;;;;;;;1.30;0.80;;;17.10;53.80;;;;;;4195467;28;20091;-41
2021/01/17 06:40:59;;;;;;;2.63;1.40;;;17.20;53.60;;;;;;4195665;28;20430;-41
2021/01/17 06:43:25;;;;;;;1.35;1.35;;;17.10;53.60;;;;;;4195616;28;20052;-41
2021/01/17 06:45:47;;;;;;;0.40;0.40;;;17.00;53.80;;;;;;4195613;28;20048;-41
2021/01/17 06:48:08;;;;;;;0.10;0.10;;;16.90;54.10;;;;;;4195594;28;20063;-41
2021/01/17 06:50:30;;;;;;;4.70;1.77;;;16.70;54.40;;;;;;4195348;28;20127;-41
2021/01/17 06:52:55;;;;;;;0.50;0.50;;;16.60;54.80;;;;;;4195046;28;20495;-41
2021/01/17 06:55:20;;;;;;;6.60;0.85;;;16.60;55.00;;;;;;4195554;28;20135;-41
2021/01/17 06:57:42;;;;;;;1.38;1.38;;;16.60;54.90;;;;;;4195102;28;20139;-43
2021/01/17 07:00:16;;;;;;;1.20;1.20;;;16.70;54.70;;;;;;4195492;28;20048;-41
2021/01/17 07:02:38;;;;;;;0.30;0.30;;;16.90;54.40;;;;;;4195462;28;20055;-42
2021/01/17 07:05:15;;;;;;;0.50;0.50;;;16.90;54.00;;;;;;4198799;28;20055;-42
2021/01/17 07:08:02;;;;;;;1.40;1.38;;;16.90;54.20;;;;;;4198567;28;20048;-42
2021/01/17 07:10:24;;;;;;;1.30;1.30;;;16.80;54.70;;;;;;4198717;28;20063;-42
2021/01/17 07:12:55;;;;;;;0.57;0.57;;;16.70;55.10;;;;;;4198741;28;20129;-41
2021/01/17 07:15:23;;;;;;;0.20;0.20;;;16.60;55.20;;;;;;4198439;28;20206;-43
2021/01/17 07:17:44;;;;;;;0.35;0.35;;;16.50;55.60;;;;;;4198680;28;20053;-42
2021/01/17 07:20:08;;;;;;;1.08;1.08;;;16.50;56.50;;;;;;4198646;28;20133;-42
2021/01/17 07:22:30;;;;;;;0.15;0.15;;;16.40;56.60;;;;;;4198310;28;20056;-42
2021/01/17 07:24:55;;;;;;;3.10;2.22;;;16.30;56.70;;;;;;4190428;28;20452;-42
2021/01/17 07:27:36;;;;;;;0.20;0.20;;;16.40;56.70;;;;;;4198093;28;20398;-41
2021/01/17 07:29:58;;;;;;;1.38;0.98;;;16.50;56.30;;;;;;4197643;28;20040;-42
2021/01/17 07:32:32;;;;;;;1.05;1.05;;;16.60;55.80;;;;;;4194115;28;20483;-41
2021/01/17 07:34:54;;;;;;;1.23;1.17;;;16.80;55.40;;;;;;4198107;28;20048;-41
2021/01/17 07:37:20;;;;;;;2.75;2.05;;;16.90;55.10;;;;;;4192212;28;20052;-41
2021/01/17 07:39:50;;;;;;;0.38;0.38;;;17.00;54.90;;;;;;4181807;28;20045;-41
2021/01/17 07:42:17;;;;;;;0.13;0.13;;;17.00;54.80;;;;;;4181840;28;20045;-42
2021/01/17 07:44:51;;;;;;;1.23;1.23;;;16.90;54.70;;;;;;4182742;28;20049;-41
2021/01/17 07:47:19;;;;;;;0.63;0.63;;;16.80;54.90;;;;;;4198301;28;20056;-42
2021/01/17 07:49:44;;;;;;;0.45;0.20;;;16.70;55.20;;;;;;4198115;28;20059;-42
2021/01/17 07:52:05;;;;;;;0.82;0.82;;;16.60;55.50;;;;;;4197618;28;20057;-41
2021/01/17 07:54:29;;;;;;;1.27;1.20;;;16.70;55.50;;;;;;4198160;28;20514;-41
2021/01/17 07:56:53;;;;;;;0.20;0.20;;;16.80;55.30;;;;;;4198216;28;20101;-41
2021/01/17 07:59:24;;;;;;;0.98;0.98;;;16.80;55.00;;;;;;4197940;28;20076;-42
2021/01/17 08:01:46;;;;;;;0.28;0.28;;;16.90;54.90;;;;;;4197965;28;20052;-42
2021/01/17 08:04:25;;;;;;;5.47;0.98;;;16.90;54.90;;;;;;4198092;28;20048;-41
2021/01/17 08:06:50;;;;;;;1.80;0.38;;;16.80;54.90;;;;;;4197545;28;20486;-43
2021/01/17 08:09:12;;;;;;;0.10;0.10;;;17.00;54.80;;;;;;4197110;28;20469;-42
2021/01/17 08:11:44;;;;;;;1.58;1.55;;;17.00;54.70;;;;;;4197958;28;20052;-42
2021/01/17 08:14:17;;;;;;;0.20;0.20;;;17.00;54.80;;;;;;4197033;28;20040;-41
2021/01/17 08:16:38;;;;;;;0.70;0.70;;;16.90;55.00;;;;;;4195588;28;20106;-41
2021/01/17 08:19:00;;;;;;;0.38;0.38;;;16.80;55.30;;;;;;4197868;28;20052;-42
2021/01/17 08:21:25;;;;;;;0.75;0.75;;;16.80;55.30;;;;;;4197407;28;20098;-41
2021/01/17 08:24:18;;;;;;;0.25;0.25;;;16.80;55.30;;;;;;4197488;28;20080;-42
2021/01/17 08:26:58;;;;;;;0.40;0.40;;;16.70;55.50;;;;;;4197377;28;20138;-41
2021/01/17 08:29:20;;;;;;;0.68;0.68;;;16.70;55.70;;;;;;4197216;28;20559;-41
2021/01/17 08:31:43;;;;;;;0.60;0.60;;;16.60;55.70;;;;;;4197292;28;20044;-41
2021/01/17 08:34:11;;;;;;;0.43;0.43;;;16.60;55.90;;;;;;4197099;28;20170;-49
2021/01/17 08:36:32;;;;;;;0.00;0.00;;;16.50;56.10;;;;;;4196765;28;21828;-41
2021/01/17 08:38:53;;;;;;;0.00;0.00;;;16.40;56.20;;;;;;4197242;28;20563;-42
2021/01/17 08:41:26;;;;;;;0.28;0.28;;;16.50;56.20;;;;;;4197124;28;20053;-40
2021/01/17 08:43:50;;;;;;;1.98;1.75;;;16.50;56.20;;;;;;4197754;28;20056;-41
2021/01/17 08:46:39;;;;;;;1.25;1.25;;;16.40;56.20;;;;;;4196918;28;20060;-41
2021/01/17 08:49:01;;;;;;;0.85;0.68;;;16.30;56.50;;;;;;4196811;28;20060;-41
2021/01/17 08:51:21;;;;;;;0.32;0.32;;;16.20;56.70;;;;;;4196931;28;20044;-41
2021/01/17 08:53:43;;;;;;;0.10;0.10;;;16.20;56.80;;;;;;4196902;28;20049;-44
2021/01/17 08:56:20;;;;;;;0.15;0.15;;;16.40;56.50;;;;;;4196942;28;20058;-43
2021/01/17 08:58:49;;;;;;;1.15;1.15;;;16.60;56.10;;;;;;4197415;28;20418;-42
2021/01/17 09:01:11;;;;;;;1.20;1.02;;;16.60;56.00;;;;;;4193831;28;20057;-46
2021/01/17 09:03:35;;;;;;;0.85;0.85;;;16.60;56.00;;;;;;4196783;28;20053;-43
2021/01/17 09:05:58;;;;;;;6.38;1.27;;;16.50;56.10;;;;;;4196906;28;20459;-44
2021/01/17 09:08:20;;;;;;;1.75;0.75;;;16.40;56.40;;;;;;4196107;28;20064;-44
2021/01/17 09:10:41;;;;;;;0.60;0.60;;;16.30;56.70;;;;;;4180610;28;20056;-43
2021/01/17 09:13:02;;;;;;;;;;;16.20;56.90;;;;;;4180654;28;20453;-44
2021/01/17 09:15:31;;;;;;;0.20;0.20;;;16.10;57.20;;;;;;4180434;28;20422;-41
2021/01/17 09:18:00;;;;;;;2.53;2.33;;;16.10;57.20;;;;;;4180368;28;20053;-41
2021/01/17 09:20:22;;;;;;;0.00;0.00;;;16.10;57.30;;;;;;4179986;28;20064;-46
2021/01/17 09:22:50;;;;;;;0.05;0.05;;;16.00;57.40;;;;;;4193461;28;20486;-42
2021/01/17 09:25:12;;;;;;;0.63;0.63;;;15.90;57.50;;;;;;4196831;28;20612;-42
2021/01/17 09:27:33;;;;;;;0.85;0.85;;;15.90;57.60;;;;;;4196145;28;20060;-41
2021/01/17 09:29:54;;;;;;;;;;;15.90;57.60;;;;;;4196746;28;20139;-41
2021/01/17 09:32:16;;;;;;;0.55;0.55;;;15.80;57.70;;;;;;4187588;28;19971;-41
2021/01/17 09:34:40;;;;;;;0.85;0.85;;;15.80;57.90;;;;;;4196324;28;20053;-41
2021/01/17 09:37:07;;;;;;;1.92;1.92;;;15.90;57.80;;;;;;4196180;28;20518;-41
2021/01/17 09:39:32;;;;;;;1.10;1.10;;;16.60;56.30;;;;;;4196223;28;20133;-42
2021/01/17 09:41:54;;;;;;;1.02;1.02;;;17.50;53.90;;;;;;4196633;28;20123;-42
2021/01/17 09:44:15;;;;;;;0.95;0.95;;;18.50;51.60;;;;;;4195863;28;20048;-42
2021/01/17 09:46:36;;;;;;;1.45;1.45;;;19.30;49.40;;;;;;4179709;28;20140;-41
2021/01/17 09:48:59;;;;;;;;;;;20.20;47.40;;;;;;4188894;28;20057;-41
2021/01/17 09:51:22;;;;;;;1.48;1.38;;;21.00;45.50;;;;;;4195849;28;19928;-42
2021/01/17 09:53:46;;;;;;;1.17;1.17;;;21.90;43.70;;;;;;4195680;28;20056;-41
2021/01/17 09:56:07;;;;;;;1.80;1.70;;;22.60;42.20;;;;;;4196204;28;20056;-42
2021/01/17 09:58:28;;;;;;;1.77;1.67;;;23.10;41.00;;;;;;4196134;28;20102;-41
2021/01/17 10:00:52;;;;;;;0.65;0.65;;;23.50;41.10;;;;;;4196019;28;20056;-42
2021/01/17 10:03:15;;;;;;;0.93;0.93;;;23.60;40.20;;;;;;4195972;28;20091;-41
2021/01/17 10:05:38;;;;;;;0.98;0.98;;;23.40;40.60;;;;;;4196081;28;20487;-43
2021/01/17 10:08:00;;;;;;;0.03;0.03;;;23.00;41.20;;;;;;4194928;28;20045;-42
2021/01/17 10:10:22;;;;;;;1.27;1.27;;;22.60;42.20;;;;;;4195581;28;20422;-43
2021/01/17 10:12:47;;;;;;;0.40;0.40;;;22.10;43.30;;;;;;4195755;28;20083;-41
2021/01/17 10:15:12;;;;;;;6.57;1.25;;;21.60;44.50;;;;;;4195944;28;20044;-42
2021/01/17 10:17:33;;;;;;;0.28;0.28;;;21.10;45.60;;;;;;4195990;28;20387;-41
2021/01/17 10:19:54;;;;;;;1.77;0.52;;;20.60;46.50;;;;;;4195436;28;20491;-41
2021/01/17 10:22:17;;;;;;;4.70;1.70;;;20.30;47.30;;;;;;4195465;28;20410;-41
2021/01/17 10:24:38;;;;;;;0.20;0.20;;;20.30;47.50;;;;;;4195723;28;20056;-42
2021/01/17 10:27:03;;;;;;;0.45;0.45;;;20.40;47.30;;;;;;4195245;28;20071;-41
2021/01/17 10:29:26;;;;;;;0.50;0.50;;;20.50;47.10;;;;;;4195642;28;20588;-42
2021/01/17 10:31:53;;;;;;;0.22;0.22;;;20.60;47.00;;;;;;4195470;28;21533;-42
2021/01/17 10:34:21;;;;;;;0.32;0.32;;;20.60;46.80;;;;;;4195696;28;20478;-42
2021/01/17 10:36:42;;;;;;;1.40;1.40;;;20.80;46.60;;;;;;4195679;28;20060;-42
2021/01/17 10:39:04;;;;;;;2.35;1.10;;;20.90;46.40;;;;;;4195503;28;20060;-41
2021/01/17 10:41:27;;;;;;;1.20;1.20;;;21.00;46.00;;;;;;4195585;28;20536;-42
2021/01/17 10:43:54;;;;;;;0.45;0.45;;;21.10;45.80;;;;;;4195669;28;20055;-43
2021/01/17 10:46:22;;;;;;;2.72;1.55;;;21.20;45.70;;;;;;4194885;28;20422;-43
2021/01/17 10:48:52;;;;;;;1.58;1.48;;;21.20;45.60;;;;;;4194423;28;20048;-42
2021/01/17 10:51:20;;;;;;;3.35;0.73;;;21.20;45.50;;;;;;4195099;28;20064;-42
2021/01/17 10:53:46;;;;;;;1.02;1.02;;;21.20;45.60;;;;;;4195174;28;20060;-43
2021/01/17 10:56:11;;;;;;;0.88;0.88;;;21.30;45.60;;;;;;4195602;28;20057;-41
2021/01/17 10:58:41;;;;;;;3.60;1.23;;;21.20;45.60;;;;;;4195428;28;20151;-42
2021/01/17 11:01:03;;;;;;;0.55;0.30;;;21.20;45.60;;;;;;4195413;28;20056;-42
2021/01/17 11:03:29;;;;;;;0.47;0.47;;;21.20;45.60;;;;;;4192388;28;20059;-42
2021/01/17 11:05:50;;;;;;;1.30;1.30;;;21.00;46.00;;;;;;4195300;28;20052;-42
2021/01/17 11:08:11;;;;;;;4.97;2.47;;;20.90;46.40;;;;;;4195448;28;20059;-43
2021/01/17 11:10:33;;;;;;;0.73;0.73;;;20.90;46.50;;;;;;4194698;28;20057;-45
2021/01/17 11:12:53;;;;;;;0.47;0.47;;;20.90;46.40;;;;;;4195310;28;20125;-46
2021/01/17 11:15:15;;;;;;;;;;;20.90;46.40;;;;;;4186104;28;20127;-44
2021/01/17 11:17:53;;;;;;;1.00;1.00;;;20.90;46.40;;;;;;4193858;28;19928;-44
2021/01/17 11:20:17;;;;;;;0.65;0.65;;;20.90;46.40;;;;;;4195103;28;20052;-46
2021/01/17 11:22:37;;;;;;;0.00;0.00;;;20.90;46.40;;;;;;4195099;28;20060;-44
2021/01/17 11:24:59;;;;;;;1.77;1.67;;;20.90;46.30;;;;;;4194797;28;20052;-44
2021/01/17 11:27:19;;;;;;;0.40;0.40;;;21.00;46.00;;;;;;4178897;28;20056;-44
2021/01/17 11:29:42;;;;;;;1.50;1.35;;;21.10;45.80;;;;;;4178610;28;20049;-44
2021/01/17 11:32:03;;;;;;;1.95;1.80;;;21.20;45.80;;;;;;4178747;28;20045;-44
2021/01/17 11:34:25;;;;;;;7.22;1.33;;;21.20;45.60;;;;;;4178717;28;20511;-44
2021/01/17 11:36:56;;;;;;;2.47;2.28;;;21.40;45.40;;;;;;4180107;28;20453;-42
2021/01/17 11:39:20;;;;;;;1.17;1.17;;;21.40;45.10;;;;;;4195161;28;20102;-44
2021/01/17 11:41:42;;;;;;;0.13;0.13;;;21.50;45.10;;;;;;4194292;28;20055;-44
2021/01/17 11:44:09;;;;;;;0.88;0.88;;;21.50;45.10;;;;;;4194530;28;20045;-44
2021/01/17 11:46:33;;;;;;;0.28;0.28;;;21.40;45.20;;;;;;4194940;28;20052;-43
2021/01/17 11:48:56;;;;;;;0.20;0.20;;;21.30;45.50;;;;;;4180295;28;20396;-45
2021/01/17 11:51:24;;;;;;;0.10;0.10;;;21.10;46.00;;;;;;4198101;28;20048;-43
2021/01/17 11:53:47;;;;;;;0.10;0.10;;;21.00;46.20;;;;;;4188932;28;20061;-43
2021/01/17 11:56:12;;;;;;;0.60;0.60;;;20.90;46.30;;;;;;4198069;28;20082;-44
2021/01/17 11:58:40;;;;;;;0.75;0.75;;;20.90;46.30;;;;;;4198013;28;20049;-43
2021/01/17 12:01:02;;;;;;;0.82;0.82;;;20.90;46.30;;;;;;4181449;28;20452;-43
2021/01/17 12:03:32;;;;;;;2.20;1.00;;;20.90;46.30;;;;;;4181188;28;20420;-43
2021/01/17 12:06:07;;;;;;;0.13;0.13;;;20.90;46.20;;;;;;4181210;28;20126;-43
2021/01/17 12:08:54;;;;;;;1.75;0.90;;;20.90;46.20;;;;;;4197447;28;20583;-44
2021/01/17 12:11:30;;;;;;;1.17;1.17;;;20.90;46.20;;;;;;4197594;28;20052;-44
2021/01/17 12:13:52;;;;;;;0.17;0.17;;;20.90;46.30;;;;;;4196724;28;20045;-44
2021/01/17 12:16:13;;;;;;;0.32;0.32;;;21.00;46.40;;;;;;4197510;28;20059;-44
2021/01/17 12:18:36;;;;;;;2.00;1.15;;;21.00;46.40;;;;;;4197239;28;20056;-44
2021/01/17 12:20:57;;;;;;;0.80;0.80;;;21.10;46.40;;;;;;4180991;28;20139;-43
2021/01/17 12:23:18;;;;;;;1.02;1.02;;;21.10;46.30;;;;;;4196570;28;20513;-44
2021/01/17 12:25:40;;;;;;;1.00;0.95;;;21.20;46.10;;;;;;4197672;28;20045;-45
2021/01/17 12:28:01;;;;;;;0.35;0.35;;;21.30;46.00;;;;;;4197616;28;20055;-44
2021/01/17 12:30:22;;;;;;;;;;;21.30;46.00;;;;;;4197945;28;20056;-44
2021/01/17 12:32:43;;;;;;;1.95;1.85;;;21.30;45.90;;;;;;4197180;28;20394;-44